createdAt,value
2023-04-18T00:04:34.622Z,8.07
2023-04-18T00:09:40.725Z,9.43
2023-04-18T00:14:46.357Z,8.83
2023-04-18T00:19:52.799Z,8.97
2023-04-18T00:24:58.463Z,8.83
2023-04-18T00:30:04.344Z,8.80
2023-04-18T00:35:10.463Z,9.90
2023-04-18T00:40:16.823Z,9.10
2023-04-18T00:45:22.497Z,8.93
2023-04-18T00:50:28.279Z,10.43
2023-04-18T00:55:33.923Z,9.13
2023-04-18T01:00:41.062Z,10.57
2023-04-18T01:05:46.827Z,9.27
2023-04-18T01:10:52.721Z,10.47
2023-04-18T01:15:59.065Z,10.00
2023-04-18T01:22:01.418Z,10.07
2023-04-18T01:27:16.552Z,10.50
2023-04-18T01:32:22.225Z,10.30
2023-04-18T01:37:27.743Z,9.90
2023-04-18T01:42:33.423Z,10.33
2023-04-18T01:47:38.893Z,10.27
2023-04-18T01:52:44.460Z,10.53
2023-04-18T01:57:50.989Z,10.90
2023-04-18T02:02:58.726Z,10.63
2023-04-18T02:08:04.442Z,10.40
2023-04-18T02:13:10.078Z,10.83
2023-04-18T02:18:16.062Z,10.20
2023-04-18T02:23:21.653Z,9.93
2023-04-18T02:28:27.459Z,10.17
2023-04-18T02:33:33.064Z,10.20
2023-04-18T02:38:38.750Z,10.53
2023-04-18T02:43:44.368Z,10.53
2023-04-18T02:48:51.677Z,9.33
2023-04-18T02:53:58.949Z,9.47
2023-04-18T02:59:06.931Z,10.57
2023-04-18T03:04:23.606Z,10.30
2023-04-18T03:09:30.908Z,10.37
2023-04-18T03:14:38.193Z,10.00
2023-04-18T03:19:45.004Z,9.27
2023-04-18T03:24:51.902Z,8.70
2023-04-18T03:29:58.028Z,10.00
2023-04-18T03:35:04.240Z,9.47
2023-04-18T03:40:11.077Z,9.00
2023-04-18T03:45:21.648Z,8.23
2023-04-18T03:50:28.205Z,9.30
2023-04-18T03:55:34.971Z,9.60
2023-04-18T04:00:41.176Z,9.10
2023-04-18T04:05:47.923Z,8.73
2023-04-18T04:10:55.341Z,8.50
2023-04-18T04:16:01.908Z,7.93
2023-04-18T04:21:08.136Z,8.30
2023-04-18T04:26:26.239Z,8.03
2023-04-18T04:31:33.462Z,8.50
2023-04-18T04:36:41.281Z,8.70
2023-04-18T04:41:48.096Z,8.37
2023-04-18T04:46:54.809Z,8.83
2023-04-18T04:52:03.170Z,7.87
2023-04-18T04:57:09.058Z,7.17
2023-04-18T05:02:14.703Z,7.83
2023-04-18T05:07:20.336Z,7.70
2023-04-18T05:12:26.864Z,7.43
2023-04-18T05:17:32.517Z,8.17
2023-04-18T05:22:38.235Z,7.17
2023-04-18T05:27:44.717Z,7.83
2023-04-18T05:32:50.482Z,8.07
2023-04-18T05:37:56.148Z,7.33
2023-04-18T05:43:02.233Z,7.43
2023-04-18T05:48:07.901Z,7.80
2023-04-18T05:53:13.732Z,7.63
2023-04-18T05:58:19.367Z,7.43
2023-04-18T06:03:25.106Z,7.10
2023-04-18T06:08:30.976Z,7.27
2023-04-18T06:13:37.504Z,8.00
2023-04-18T06:18:43.119Z,7.80
2023-04-18T06:23:49.630Z,7.03
2023-04-18T06:28:55.076Z,8.67
2023-04-18T06:34:00.609Z,7.57
2023-04-18T06:39:06.419Z,7.83
2023-04-18T06:44:12.021Z,7.53
2023-04-18T06:49:17.673Z,7.70
2023-04-18T06:54:23.344Z,7.50
2023-04-18T06:59:29.226Z,7.00
2023-04-18T07:04:35.236Z,6.97
2023-04-18T07:09:40.753Z,7.53
2023-04-18T07:14:46.220Z,8.40
2023-04-18T07:19:51.690Z,7.70
2023-04-18T07:24:57.117Z,8.03
2023-04-18T07:30:02.892Z,7.30
2023-04-18T07:35:08.502Z,7.20
2023-04-18T07:40:14.665Z,8.10
2023-04-18T07:45:20.254Z,7.87
2023-04-18T07:50:26.982Z,7.37
2023-04-18T07:55:32.981Z,7.43
2023-04-18T08:00:39.831Z,7.90
2023-04-18T08:05:45.298Z,8.00
2023-04-18T08:10:50.987Z,7.30
2023-04-18T08:15:56.469Z,8.00
2023-04-18T08:21:02.089Z,7.50
2023-04-18T08:26:07.618Z,6.40
2023-04-18T08:31:17.264Z,7.63
2023-04-18T08:36:22.983Z,6.67
2023-04-18T08:41:30.879Z,6.73
2023-04-18T08:46:39.564Z,6.33
2023-04-18T08:51:47.507Z,7.57
2023-04-18T08:57:08.817Z,7.80
2023-04-18T09:02:15.711Z,7.03
2023-04-18T09:07:31.428Z,7.37
2023-04-18T09:12:47.232Z,6.87
2023-04-18T09:17:54.437Z,7.67
2023-04-18T09:29:06.369Z,8.30
2023-04-18T09:34:16.684Z,7.53
2023-04-18T09:39:28.843Z,7.47
2023-04-18T09:44:34.454Z,7.57
2023-04-18T09:49:40.053Z,6.97
2023-04-18T09:54:48.225Z,7.00
2023-04-18T10:00:16.279Z,7.60
2023-04-18T10:05:24.076Z,7.07
2023-04-18T10:10:30.419Z,7.20
2023-04-18T10:15:36.336Z,8.17
2023-04-18T10:20:42.983Z,7.87
2023-04-18T10:25:52.092Z,7.20
2023-04-18T10:31:05.860Z,7.03
2023-04-18T10:36:15.097Z,7.37
2023-04-18T10:41:26.254Z,7.57
2023-04-18T10:46:32.945Z,7.30
2023-04-18T10:51:39.812Z,8.10
2023-04-18T10:56:53.555Z,7.43
2023-04-18T11:02:02.073Z,7.93
2023-04-18T11:07:07.703Z,7.37
2023-04-18T11:12:34.832Z,7.10
2023-04-18T11:17:50.712Z,6.67
2023-04-18T11:23:03.495Z,6.20
2023-04-18T11:28:49.894Z,6.97
2023-04-18T11:33:59.890Z,7.00
2023-04-18T11:39:12.190Z,6.20
2023-04-18T11:44:25.911Z,6.83
2023-04-18T11:49:42.205Z,6.83
2023-04-18T11:55:13.767Z,5.17
2023-04-18T12:00:22.364Z,6.20
2023-04-18T12:05:30.307Z,5.93
2023-04-18T12:10:44.337Z,4.63
2023-04-18T12:15:49.998Z,4.83
2023-04-18T12:21:00.340Z,4.80
2023-04-18T12:26:18.333Z,4.70
2023-04-18T12:31:25.473Z,5.30
2023-04-18T12:36:31.014Z,3.93
2023-04-18T12:41:36.752Z,3.47
2023-04-18T12:46:42.312Z,3.13
2023-04-18T12:51:47.872Z,3.50
2023-04-18T12:56:55.019Z,3.70
2023-04-18T13:20:01.011Z,3.60
2023-04-18T13:25:08.347Z,3.20
2023-04-18T13:30:15.241Z,3.77
2023-04-18T13:35:20.854Z,2.63
2023-04-18T13:40:26.642Z,2.97
2023-04-18T13:45:32.222Z,2.57
2023-04-18T13:50:37.682Z,2.70
2023-04-18T13:55:43.233Z,2.40
2023-04-18T14:00:48.719Z,2.57
2023-04-18T14:05:54.332Z,2.90
2023-04-18T14:10:59.892Z,3.40
2023-04-18T14:16:07.632Z,2.37
2023-04-18T14:21:13.340Z,3.60
2023-04-18T14:26:20.555Z,2.50
2023-04-18T14:31:27.699Z,3.37
2023-04-18T14:36:33.395Z,3.17
2023-04-18T14:41:38.952Z,3.40
2023-04-18T14:46:44.785Z,3.40
2023-04-18T14:51:50.260Z,3.80
2023-04-18T14:56:56.498Z,3.77
2023-04-18T15:02:02.411Z,3.53
2023-04-18T15:07:07.988Z,3.30
2023-04-18T15:12:46.814Z,3.53
2023-04-18T15:24:00.643Z,2.83
2023-04-18T15:29:06.268Z,2.90
2023-04-18T15:40:25.259Z,2.57
2023-04-18T15:45:30.906Z,2.80
2023-04-18T15:50:36.627Z,2.97
2023-04-18T15:56:01.006Z,3.00
2023-04-18T16:01:07.791Z,3.27
2023-04-18T16:06:15.006Z,3.50
2023-04-18T16:11:21.941Z,3.27
2023-04-18T16:16:28.587Z,3.03
2023-04-18T16:21:34.147Z,3.33
2023-04-18T16:26:39.573Z,3.53
2023-04-18T16:31:45.116Z,4.13
2023-04-18T16:42:35.227Z,3.57
2023-04-18T16:47:40.821Z,3.50
2023-04-18T16:52:46.456Z,3.90
2023-04-18T16:57:52.486Z,4.03
2023-04-18T17:02:58.385Z,3.63
2023-04-18T17:08:04.234Z,3.93
2023-04-18T17:13:09.749Z,3.93
2023-04-18T17:18:15.209Z,3.77
2023-04-18T17:23:21.829Z,4.53
2023-04-18T17:28:27.343Z,3.63
2023-04-18T17:33:33.140Z,3.57
2023-04-18T17:38:38.807Z,4.43
2023-04-18T17:43:45.182Z,4.73
2023-04-18T17:48:50.742Z,4.30
2023-04-18T17:53:57.624Z,4.53
2023-04-18T17:59:03.269Z,5.20
2023-04-18T18:04:08.802Z,5.57
2023-04-18T18:09:14.446Z,5.37
2023-04-18T18:14:20.409Z,4.60
2023-04-18T18:19:26.183Z,4.63
2023-04-18T18:24:31.613Z,4.63
2023-04-18T18:29:37.130Z,4.53
2023-04-18T18:34:43.636Z,4.97
2023-04-18T18:39:49.156Z,5.10
2023-04-18T18:44:54.746Z,5.27
2023-04-18T18:50:00.389Z,4.77
2023-04-18T18:55:06.306Z,5.43
2023-04-18T19:00:13.509Z,4.87
2023-04-18T19:05:19.066Z,4.67
2023-04-18T19:10:24.575Z,4.27
2023-04-18T19:15:31.004Z,5.40
2023-04-18T19:20:38.092Z,4.87
2023-04-18T19:25:44.996Z,4.40
2023-04-18T19:30:51.068Z,4.07
2023-04-18T19:35:57.158Z,4.17
2023-04-18T19:41:02.840Z,3.87
2023-04-18T19:46:08.472Z,3.30
2023-04-18T19:51:13.953Z,3.90
2023-04-18T19:56:19.578Z,4.03
2023-04-18T20:01:25.990Z,3.70
2023-04-18T20:06:31.620Z,3.93
2023-04-18T20:11:37.133Z,3.90
2023-04-18T20:16:45.377Z,4.00
2023-04-18T20:21:51.138Z,3.27
2023-04-18T20:26:57.283Z,4.20
2023-04-18T20:32:03.383Z,3.87
2023-04-18T20:37:10.185Z,3.97
2023-04-18T20:42:15.922Z,3.70
2023-04-18T20:47:21.529Z,3.87
2023-04-18T20:52:27.121Z,4.33
2023-04-18T20:57:32.638Z,4.17
2023-04-18T21:02:38.407Z,4.03
2023-04-18T21:07:45.768Z,3.77
2023-04-18T21:12:51.529Z,3.70
2023-04-18T21:17:57.559Z,3.60
2023-04-18T21:23:03.319Z,3.37
2023-04-18T21:28:09.182Z,3.60
2023-04-18T21:33:15.106Z,3.67
2023-04-18T21:38:22.361Z,3.10
2023-04-18T21:43:27.858Z,4.13
2023-04-18T21:48:33.358Z,3.57
2023-04-18T21:53:42.867Z,3.37
2023-04-18T21:58:48.446Z,3.10
2023-04-18T22:03:54.058Z,3.37
2023-04-18T22:09:00.925Z,3.07
2023-04-18T22:14:06.473Z,3.53
2023-04-18T22:19:12.667Z,3.07
2023-04-18T22:24:19.747Z,3.33
2023-04-18T22:29:25.297Z,3.03
2023-04-18T22:34:31.068Z,3.20
2023-04-18T22:39:36.560Z,3.07
2023-04-18T22:44:42.051Z,2.73
2023-04-18T22:49:47.574Z,3.43
2023-04-18T22:54:56.511Z,3.37
2023-04-18T23:00:02.094Z,3.00
2023-04-18T23:05:09.282Z,3.30
2023-04-18T23:10:14.731Z,3.70
2023-04-18T23:15:22.225Z,2.97
2023-04-18T23:20:27.703Z,2.87
2023-04-18T23:25:36.025Z,3.07
2023-04-18T23:30:41.617Z,2.50
2023-04-18T23:35:47.044Z,2.47
2023-04-18T23:40:52.595Z,2.30
2023-04-18T23:45:58.132Z,3.40
2023-04-18T23:51:03.562Z,2.43
2023-04-18T23:56:09.132Z,2.50
